createdAt,value
2022-07-31T00:00:51.372Z,101334.50
2022-07-31T00:03:18.094Z,101343.19
2022-07-31T00:05:44.733Z,101334.31
2022-07-31T00:08:11.352Z,101329.16
2022-07-31T00:10:38.288Z,101327.69
2022-07-31T00:13:04.952Z,101329.97
2022-07-31T00:15:31.551Z,101327.50
2022-07-31T00:17:58.194Z,101327.28
2022-07-31T00:20:24.800Z,101337.78
2022-07-31T00:22:51.448Z,101329.75
2022-07-31T00:25:18.917Z,101336.13
2022-07-31T00:27:45.592Z,101332.63
2022-07-31T00:30:16.952Z,101329.34
2022-07-31T00:32:44.271Z,101327.09
2022-07-31T00:35:12.452Z,101324.19
2022-07-31T00:37:40.099Z,101325.00
2022-07-31T00:40:10.659Z,101323.56
2022-07-31T00:42:37.337Z,101324.19
2022-07-31T00:45:04.558Z,101326.84
2022-07-31T00:47:32.413Z,101336.56
2022-07-31T00:49:59.183Z,101327.69
2022-07-31T00:52:26.034Z,101327.91
2022-07-31T00:54:52.642Z,101330.56
2022-07-31T00:57:19.408Z,101316.16
2022-07-31T00:59:46.058Z,101317.19
2022-07-31T01:02:12.664Z,101318.63
2022-07-31T01:04:41.488Z,101318.03
2022-07-31T01:07:08.421Z,101327.50
2022-07-31T01:09:36.053Z,101320.69
2022-07-31T01:12:19.236Z,101322.34
2022-07-31T01:14:53.611Z,101318.63
2022-07-31T01:17:23.882Z,101323.78
2022-07-31T01:19:52.346Z,101321.50
2022-07-31T01:22:35.213Z,101325.00
2022-07-31T01:25:23.730Z,101325.22
2022-07-31T01:27:56.217Z,101323.56
2022-07-31T01:30:30.500Z,101327.28
2022-07-31T01:32:58.391Z,101320.88
2022-07-31T01:35:27.785Z,101322.13
2022-07-31T01:38:03.776Z,101316.97
2022-07-31T01:40:35.734Z,101316.59
2022-07-31T01:43:05.878Z,101317.38
2022-07-31T01:45:33.528Z,101313.91
2022-07-31T01:48:01.697Z,101315.13
2022-07-31T01:50:43.047Z,101318.81
2022-07-31T01:53:14.036Z,101316.78
2022-07-31T01:56:03.832Z,101314.69
2022-07-31T01:58:30.498Z,101320.47
2022-07-31T02:00:58.466Z,101320.66
2022-07-31T02:03:43.614Z,101321.66
2022-07-31T02:06:16.591Z,101319.41
2022-07-31T02:08:47.981Z,101319.03
2022-07-31T02:11:19.505Z,101313.25
2022-07-31T02:13:47.350Z,101314.66
2022-07-31T02:16:15.440Z,101317.13
2022-07-31T02:18:42.901Z,101311.97
2022-07-31T02:21:09.793Z,101313.34
2022-07-31T02:23:37.188Z,101307.25
2022-07-31T02:26:07.186Z,101308.72
2022-07-31T02:28:36.089Z,101314.91
2022-07-31T02:31:03.054Z,101311.19
2022-07-31T02:33:31.287Z,101310.31
2022-07-31T02:35:58.946Z,101307.66
2022-07-31T02:38:27.507Z,101314.66
2022-07-31T02:41:00.110Z,101308.72
2022-07-31T02:43:27.039Z,101309.13
2022-07-31T02:45:54.925Z,101307.88
2022-07-31T02:48:21.861Z,101303.56
2022-07-31T02:50:48.732Z,101294.50
2022-07-31T02:53:15.581Z,101296.59
2022-07-31T02:55:44.265Z,101300.69
2022-07-31T02:58:11.293Z,101290.19
2022-07-31T03:00:38.025Z,101296.19
2022-07-31T03:03:04.677Z,101298.22
2022-07-31T03:05:31.433Z,101295.25
2022-07-31T03:07:58.238Z,101283.69
2022-07-31T03:10:25.008Z,101281.88
2022-07-31T03:12:53.261Z,101282.91
2022-07-31T03:15:23.650Z,101288.47
2022-07-31T03:17:50.587Z,101291.94
2022-07-31T03:20:18.021Z,101289.03
2022-07-31T03:22:44.827Z,101285.97
2022-07-31T03:25:11.843Z,101288.03
2022-07-31T03:27:56.026Z,101288.66
2022-07-31T03:30:27.286Z,101277.13
2022-07-31T03:32:55.913Z,101287.38
2022-07-31T03:35:24.018Z,101282.88
2022-07-31T03:37:51.018Z,101278.34
2022-07-31T03:40:17.634Z,101278.38
2022-07-31T03:42:44.555Z,101281.06
2022-07-31T03:45:12.570Z,101278.59
2022-07-31T03:47:39.251Z,101271.06
2022-07-31T03:50:07.177Z,101270.44
2022-07-31T03:52:33.796Z,101264.06
2022-07-31T03:55:00.417Z,101265.72
2022-07-31T03:57:28.779Z,101275.38
2022-07-31T03:59:58.321Z,101274.34
2022-07-31T04:02:27.470Z,101272.69
2022-07-31T04:04:54.991Z,101275.38
2022-07-31T04:07:21.595Z,101276.41
2022-07-31T04:09:48.278Z,101278.06
2022-07-31T04:12:15.117Z,101278.44
2022-07-31T04:14:41.706Z,101276.13
2022-07-31T04:17:08.671Z,101278.34
2022-07-31T04:19:35.477Z,101273.78
2022-07-31T04:22:02.962Z,101275.47
2022-07-31T04:24:29.839Z,101265.63
2022-07-31T04:26:57.393Z,101270.13
2022-07-31T04:29:24.867Z,101271.78
2022-07-31T04:31:51.472Z,101272.25
2022-07-31T04:34:18.054Z,101270.34
2022-07-31T04:36:44.676Z,101278.53
2022-07-31T04:39:11.333Z,101281.16
2022-07-31T04:41:37.930Z,101278.66
2022-07-31T04:44:04.728Z,101272.91
2022-07-31T04:46:31.376Z,101278.13
2022-07-31T04:48:58.192Z,101288.97
2022-07-31T04:51:24.877Z,101289.53
2022-07-31T04:53:51.679Z,101285.66
2022-07-31T04:56:34.206Z,101287.72
2022-07-31T04:59:04.008Z,101293.34
2022-07-31T05:01:30.751Z,101302.78
2022-07-31T05:03:58.588Z,101302.38
2022-07-31T05:06:34.410Z,101311.06
2022-07-31T05:09:05.585Z,101308.19
2022-07-31T05:11:36.001Z,101297.09
2022-07-31T05:14:04.229Z,101307.97
2022-07-31T05:16:31.272Z,101301.19
2022-07-31T05:18:58.270Z,101318.09
2022-07-31T05:21:27.179Z,101310.47
2022-07-31T05:23:55.226Z,101312.19
2022-07-31T05:26:22.073Z,101312.19
2022-07-31T05:28:49.642Z,101311.56
2022-07-31T05:31:17.622Z,101308.91
2022-07-31T05:33:45.548Z,101319.19
2022-07-31T05:36:12.365Z,101318.34
2022-07-31T05:38:38.989Z,101317.06
2022-07-31T05:41:06.155Z,101315.84
2022-07-31T05:43:32.989Z,101311.72
2022-07-31T05:45:59.871Z,101316.31
2022-07-31T05:48:27.053Z,101310.53
2022-07-31T05:50:53.961Z,101307.28
2022-07-31T05:53:20.770Z,101320.44
2022-07-31T05:55:49.656Z,101314.66
2022-07-31T05:58:17.633Z,101312.63
2022-07-31T06:00:45.610Z,101310.34
2022-07-31T06:03:12.895Z,101314.66
2022-07-31T06:05:40.520Z,101310.34
2022-07-31T06:08:08.797Z,101305.63
2022-07-31T06:10:36.961Z,101315.91
2022-07-31T06:13:04.781Z,101310.56
2022-07-31T06:15:36.053Z,101310.16
2022-07-31T06:18:03.775Z,101310.56
2022-07-31T06:20:30.689Z,101308.34
2022-07-31T06:22:57.363Z,101308.34
2022-07-31T06:25:24.043Z,101308.34
2022-07-31T06:27:56.487Z,101312.66
2022-07-31T06:30:26.871Z,101317.59
2022-07-31T06:32:53.595Z,101318.00
2022-07-31T06:35:20.326Z,101319.44
2022-07-31T06:37:46.985Z,101321.72
2022-07-31T06:40:14.320Z,101322.72
2022-07-31T06:42:41.635Z,101316.38
2022-07-31T06:45:08.982Z,101314.31
2022-07-31T06:47:35.626Z,101316.13
2022-07-31T06:50:02.562Z,101317.81
2022-07-31T06:52:29.195Z,101314.09
2022-07-31T06:54:55.901Z,101311.84
2022-07-31T06:57:22.729Z,101308.56
2022-07-31T06:59:49.459Z,101310.00
2022-07-31T07:02:16.377Z,101303.41
2022-07-31T07:05:00.004Z,101300.31
2022-07-31T07:07:31.720Z,101294.53
2022-07-31T07:09:58.995Z,101303.59
2022-07-31T07:12:26.841Z,101296.63
2022-07-31T07:14:54.454Z,101297.84
2022-07-31T07:17:22.979Z,101295.78
2022-07-31T07:19:54.741Z,101288.38
2022-07-31T07:22:29.927Z,101290.03
2022-07-31T07:24:59.788Z,101303.19
2022-07-31T07:27:26.430Z,101302.38
2022-07-31T07:29:53.278Z,101300.53
2022-07-31T07:32:19.921Z,101304.63
2022-07-31T07:34:46.524Z,101306.06
2022-07-31T07:37:13.125Z,101300.53
2022-07-31T07:39:39.774Z,101294.97
2022-07-31T07:42:06.644Z,101303.00
2022-07-31T07:44:33.553Z,101307.13
2022-07-31T07:47:00.178Z,101298.66
2022-07-31T07:49:26.885Z,101294.97
2022-07-31T07:51:58.910Z,101293.09
2022-07-31T07:54:26.930Z,101287.97
2022-07-31T07:56:54.939Z,101287.16
2022-07-31T07:59:21.940Z,101279.13
2022-07-31T08:01:48.717Z,101282.81
2022-07-31T08:04:15.330Z,101282.59
2022-07-31T08:06:42.103Z,101281.16
2022-07-31T08:09:09.184Z,101281.34
2022-07-31T08:11:35.954Z,101282.38
2022-07-31T08:14:02.547Z,101277.84
2022-07-31T08:16:29.209Z,101267.34
2022-07-31T08:18:55.848Z,101269.44
2022-07-31T08:21:22.460Z,101266.13
2022-07-31T08:23:49.093Z,101260.75
2022-07-31T08:26:17.340Z,101267.97
2022-07-31T08:28:49.796Z,101266.75
2022-07-31T08:31:19.217Z,101271.06
2022-07-31T08:33:45.973Z,101264.47
2022-07-31T08:36:12.633Z,101261.13
2022-07-31T08:38:39.507Z,101258.22
2022-07-31T08:41:07.002Z,101264.63
2022-07-31T08:44:02.102Z,101259.28
2022-07-31T08:46:20.559Z,101253.53
2022-07-31T08:48:48.385Z,101264.44
2022-07-31T08:51:15.845Z,101250.84
2022-07-31T08:53:42.994Z,101242.19
2022-07-31T08:56:09.912Z,101250.00
2022-07-31T08:58:39.673Z,101247.34
2022-07-31T09:01:08.335Z,101246.50
2022-07-31T09:03:36.131Z,101252.69
2022-07-31T09:06:03.664Z,101250.63
2022-07-31T09:08:34.360Z,101247.72
2022-07-31T09:11:05.938Z,101240.53
2022-07-31T09:13:34.847Z,101240.53
2022-07-31T09:16:01.968Z,101243.00
2022-07-31T09:18:28.680Z,101234.13
2022-07-31T09:21:02.012Z,101239.66
2022-07-31T09:23:29.438Z,101231.63
2022-07-31T09:26:01.864Z,101226.28
2022-07-31T09:28:36.407Z,101227.69
2022-07-31T09:31:04.826Z,101235.75
2022-07-31T09:33:32.427Z,101224.00
2022-07-31T09:35:59.881Z,101222.34
2022-07-31T09:38:44.670Z,101223.19
2022-07-31T09:41:56.949Z,101221.94
2022-07-31T09:44:10.579Z,101220.09
2022-07-31T09:46:44.491Z,101212.03
2022-07-31T09:49:11.266Z,101207.28
2022-07-31T09:51:43.054Z,101211.00
2022-07-31T09:54:31.310Z,101207.28
2022-07-31T09:56:58.156Z,101197.41
2022-07-31T09:59:26.605Z,101199.88
2022-07-31T10:01:53.537Z,101202.09
2022-07-31T10:04:22.381Z,101203.16
2022-07-31T10:06:50.776Z,101199.44
2022-07-31T10:09:19.700Z,101194.69
2022-07-31T10:11:48.216Z,101195.50
2022-07-31T10:14:32.271Z,101193.03
2022-07-31T10:17:00.506Z,101190.09
2022-07-31T10:19:38.268Z,101193.41
2022-07-31T10:22:05.791Z,101186.41
2022-07-31T10:24:33.441Z,101188.63
2022-07-31T10:27:01.861Z,101184.72
2022-07-31T10:29:32.318Z,101187.78
2022-07-31T10:31:59.744Z,101182.63
2022-07-31T10:34:26.659Z,101176.22
2022-07-31T10:36:55.028Z,101174.78
2022-07-31T10:40:17.354Z,101165.09
2022-07-31T10:42:45.769Z,101163.22
2022-07-31T10:45:17.375Z,101165.69
2022-07-31T10:48:00.072Z,101164.72
2022-07-31T10:50:30.357Z,101166.56
2022-07-31T10:53:10.943Z,101163.47
2022-07-31T10:55:38.015Z,101165.53
2022-07-31T10:58:21.053Z,101165.72
2022-07-31T11:00:47.683Z,101157.25
2022-07-31T11:03:21.981Z,101164.44
2022-07-31T11:06:01.982Z,101157.69
2022-07-31T11:08:41.992Z,101158.09
2022-07-31T11:11:09.121Z,101160.53
2022-07-31T11:13:56.968Z,101163.22
2022-07-31T11:16:23.990Z,101157.88
2022-07-31T11:19:02.204Z,101150.06
2022-07-31T11:21:42.299Z,101155.38
2022-07-31T11:24:19.639Z,101148.09
2022-07-31T11:26:57.369Z,101147.44
2022-07-31T11:30:00.249Z,101149.66
2022-07-31T11:32:25.885Z,101149.88
2022-07-31T11:34:56.713Z,101152.97
2022-07-31T11:37:25.627Z,101150.06
2022-07-31T11:39:54.140Z,101141.97
2022-07-31T11:42:26.524Z,101133.22
2022-07-31T11:45:10.991Z,101127.41
2022-07-31T11:48:11.566Z,101127.63
2022-07-31T11:50:30.854Z,101117.72
2022-07-31T11:53:04.631Z,101118.94
2022-07-31T11:55:31.337Z,101122.00
2022-07-31T11:57:57.977Z,101123.13
2022-07-31T12:00:27.269Z,101118.97
2022-07-31T12:02:57.523Z,101109.47
2022-07-31T12:05:38.959Z,101117.34
2022-07-31T12:08:07.733Z,101118.34
2022-07-31T12:10:36.228Z,101110.91
2022-07-31T12:13:03.245Z,101116.56
2022-07-31T12:15:29.971Z,101115.72
2022-07-31T12:18:01.470Z,101107.03
2022-07-31T12:20:35.411Z,101098.75
2022-07-31T12:23:04.859Z,101106.19
2022-07-31T12:25:45.930Z,101096.44
2022-07-31T12:28:16.494Z,101103.03
2022-07-31T12:30:43.816Z,101096.03
2022-07-31T12:33:11.741Z,101098.53
2022-07-31T12:35:56.518Z,101110.16
2022-07-31T12:38:41.068Z,101104.63
2022-07-31T12:41:12.663Z,101106.25
2022-07-31T12:43:39.301Z,101104.63
2022-07-31T12:46:17.007Z,101100.31
2022-07-31T12:48:46.093Z,101105.31
2022-07-31T12:51:13.256Z,101098.06
2022-07-31T12:53:39.922Z,101100.75
2022-07-31T12:56:13.656Z,101091.66
2022-07-31T12:58:40.255Z,101095.09
2022-07-31T13:01:07.023Z,101080.94
2022-07-31T13:03:38.792Z,101071.44
2022-07-31T13:06:13.583Z,101069.56
2022-07-31T13:08:40.237Z,101068.31
2022-07-31T13:11:06.894Z,101063.63
2022-07-31T13:13:33.501Z,101061.41
2022-07-31T13:16:00.174Z,101062.06
2022-07-31T13:18:26.774Z,101063.34
2022-07-31T13:20:53.414Z,101057.16
2022-07-31T13:23:21.462Z,101054.91
2022-07-31T13:25:48.104Z,101061.13
2022-07-31T13:28:14.757Z,101060.06
2022-07-31T13:30:41.634Z,101057.81
2022-07-31T13:33:08.441Z,101060.13
2022-07-31T13:35:35.060Z,101050.66
2022-07-31T13:38:01.693Z,101050.66
2022-07-31T13:40:47.008Z,101050.06
2022-07-31T13:43:13.907Z,101055.81
2022-07-31T13:45:40.496Z,101049.84
2022-07-31T13:48:09.555Z,101043.69
2022-07-31T13:50:38.044Z,101044.03
2022-07-31T13:53:05.005Z,101043.00
2022-07-31T13:55:31.840Z,101039.41
2022-07-31T13:57:59.674Z,101038.16
2022-07-31T14:00:28.602Z,101032.34
2022-07-31T14:02:55.209Z,101038.16
2022-07-31T14:05:23.798Z,101039.59
2022-07-31T14:07:53.343Z,101033.84
2022-07-31T14:10:21.545Z,101032.16
2022-07-31T14:12:48.688Z,101032.59
2022-07-31T14:15:16.645Z,101029.59
2022-07-31T14:17:43.567Z,101031.91
2022-07-31T14:20:10.731Z,101022.22
2022-07-31T14:22:37.349Z,101026.09
2022-07-31T14:25:04.406Z,101030.63
2022-07-31T14:27:31.070Z,101028.38
2022-07-31T14:29:57.694Z,101031.91
2022-07-31T14:32:25.281Z,101025.91
2022-07-31T14:34:52.257Z,101022.44
2022-07-31T14:37:20.018Z,101020.34
2022-07-31T14:39:46.693Z,101012.06
2022-07-31T14:42:13.358Z,101012.84
2022-07-31T14:44:42.136Z,101011.94
2022-07-31T14:47:10.227Z,101002.84
2022-07-31T14:50:09.351Z,101009.41
2022-07-31T14:52:23.948Z,101005.22
2022-07-31T14:54:50.652Z,101003.47
2022-07-31T14:57:20.070Z,101003.97
2022-07-31T14:59:49.933Z,101007.47
2022-07-31T15:02:21.907Z,101000.81
2022-07-31T15:04:49.119Z,101002.25
2022-07-31T15:10:07.267Z,100998.72
2022-07-31T15:12:34.358Z,100998.81
2022-07-31T15:15:00.977Z,100993.91
2022-07-31T15:17:27.658Z,100989.97
2022-07-31T15:19:54.323Z,100982.41
2022-07-31T15:22:20.945Z,100984.19
2022-07-31T15:24:48.866Z,100983.00
2022-07-31T15:27:17.839Z,100983.59
2022-07-31T15:30:00.614Z,100981.34
2022-07-31T15:32:31.380Z,100980.63
2022-07-31T15:34:58.012Z,100981.28
2022-07-31T15:37:24.657Z,100979.88
2022-07-31T15:40:02.792Z,100981.38
2022-07-31T15:42:38.005Z,100981.16
2022-07-31T15:45:05.188Z,100986.09
2022-07-31T15:47:31.807Z,100979.66
2022-07-31T15:49:58.826Z,100980.63
2022-07-31T15:52:25.819Z,100976.16
2022-07-31T15:54:52.865Z,100981.38
2022-07-31T15:57:23.108Z,100986.75
2022-07-31T15:59:50.408Z,100980.78
2022-07-31T16:02:17.440Z,100977.06
2022-07-31T16:04:52.957Z,100975.66
2022-07-31T16:08:30.039Z,100974.47
2022-07-31T16:10:15.428Z,100977.97
2022-07-31T16:12:46.538Z,100981.66
2022-07-31T16:15:13.860Z,100977.31
2022-07-31T16:17:40.969Z,100974.66
2022-07-31T16:20:13.465Z,100976.13
2022-07-31T16:22:55.577Z,100967.94
2022-07-31T16:25:22.899Z,100975.56
2022-07-31T16:27:49.581Z,100973.44
2022-07-31T16:30:16.308Z,100966.47
2022-07-31T16:32:43.381Z,100967.50
2022-07-31T16:35:10.986Z,100962.38
2022-07-31T16:37:52.627Z,100955.59
2022-07-31T16:40:30.861Z,100960.94
2022-07-31T16:43:46.760Z,100956.63
2022-07-31T16:45:50.026Z,100946.97
2022-07-31T16:48:16.654Z,100954.41
2022-07-31T16:50:43.295Z,100955.22
2022-07-31T16:53:09.923Z,100943.66
2022-07-31T16:56:00.604Z,100949.63
2022-07-31T16:58:27.829Z,100952.31
2022-07-31T17:00:54.599Z,100948.59
2022-07-31T17:03:58.490Z,100948.59
2022-07-31T17:06:11.490Z,100945.28
2022-07-31T17:08:38.536Z,100946.13
2022-07-31T17:11:05.466Z,100952.06
2022-07-31T17:13:32.086Z,100947.53
2022-07-31T17:15:58.673Z,100954.75
2022-07-31T17:18:26.016Z,100953.72
2022-07-31T17:20:55.704Z,100950.22
2022-07-31T17:23:43.209Z,100946.97
2022-07-31T17:26:10.219Z,100946.97
2022-07-31T17:28:47.503Z,100945.28
2022-07-31T17:31:14.164Z,100942.59
2022-07-31T17:33:59.408Z,100945.28
2022-07-31T17:36:29.013Z,100940.97
2022-07-31T17:38:56.919Z,100945.50
2022-07-31T17:41:24.574Z,100937.25
2022-07-31T17:43:55.603Z,100947.19
2022-07-31T17:46:34.730Z,100949.63
2022-07-31T17:49:06.100Z,100936.44
2022-07-31T17:51:33.237Z,100939.94
2022-07-31T17:54:00.322Z,100943.66
2022-07-31T17:56:27.333Z,100945.50
2022-07-31T17:58:55.556Z,100942.84
2022-07-31T18:01:27.032Z,100943.88
2022-07-31T18:03:55.794Z,100951.94
2022-07-31T18:06:22.369Z,100948.44
2022-07-31T18:08:48.964Z,100951.13
2022-07-31T18:11:15.595Z,100943.31
2022-07-31T18:13:48.516Z,100947.41
2022-07-31T18:16:23.263Z,100947.63
2022-07-31T18:18:54.172Z,100943.88
2022-07-31T18:21:21.271Z,100947.63
2022-07-31T18:23:47.919Z,100946.56
2022-07-31T18:26:14.801Z,100944.72
2022-07-31T18:28:41.512Z,100942.03
2022-07-31T18:31:31.640Z,100949.84
2022-07-31T18:33:55.062Z,100948.44
2022-07-31T18:36:21.764Z,100954.41
2022-07-31T18:38:48.406Z,100942.84
2022-07-31T18:41:16.079Z,100947.41
2022-07-31T18:43:42.720Z,100943.66
2022-07-31T18:46:09.324Z,100946.34
2022-07-31T18:48:35.928Z,100949.53
2022-07-31T18:51:04.911Z,100951.31
2022-07-31T18:53:32.902Z,100953.34
2022-07-31T18:55:59.839Z,100955.59
2022-07-31T18:58:26.645Z,100947.97
2022-07-31T19:00:55.166Z,100954.19
2022-07-31T19:03:26.388Z,100956.50
2022-07-31T19:05:53.545Z,100954.22
2022-07-31T19:08:20.785Z,100956.34
2022-07-31T19:10:49.506Z,100963.78
2022-07-31T19:13:18.998Z,100961.94
2022-07-31T19:15:50.607Z,100960.25
2022-07-31T19:18:17.681Z,100961.31
2022-07-31T19:21:00.167Z,100958.06
2022-07-31T19:23:35.050Z,100960.94
2022-07-31T19:26:03.940Z,100959.91
2022-07-31T19:28:34.791Z,100956.63
2022-07-31T19:31:01.618Z,100964.47
2022-07-31T19:33:28.311Z,100962.00
2022-07-31T19:36:00.983Z,100963.06
2022-07-31T19:38:29.599Z,100974.22
2022-07-31T19:40:56.232Z,100975.84
2022-07-31T19:43:23.195Z,100968.63
2022-07-31T19:46:00.411Z,100964.28
2022-07-31T19:48:40.649Z,100966.16
2022-07-31T19:51:07.723Z,100961.03
2022-07-31T19:53:34.489Z,100968.25
2022-07-31T19:56:05.317Z,100964.75
2022-07-31T19:58:33.579Z,100957.50
2022-07-31T20:01:00.453Z,100959.97
2022-07-31T20:03:27.384Z,100961.84
2022-07-31T20:05:54.163Z,100956.72
2022-07-31T20:08:20.801Z,100961.09
2022-07-31T20:10:47.576Z,100959.69
2022-07-31T20:13:14.236Z,100951.88
2022-07-31T20:15:50.850Z,100952.22
2022-07-31T20:18:26.956Z,100947.91
2022-07-31T20:21:00.002Z,100948.75
2022-07-31T20:23:27.549Z,100951.22
2022-07-31T20:25:54.399Z,100939.88
2022-07-31T20:28:21.388Z,100942.56
2022-07-31T20:30:48.054Z,100943.38
2022-07-31T20:33:14.825Z,100934.72
2022-07-31T20:35:48.471Z,100940.31
2022-07-31T20:38:25.474Z,100929.56
2022-07-31T20:40:55.877Z,100936.00
2022-07-31T20:43:28.889Z,100931.91
2022-07-31T20:45:59.772Z,100934.34
2022-07-31T20:48:34.857Z,100931.69
2022-07-31T20:51:02.965Z,100939.94
2022-07-31T20:53:31.282Z,100927.38
2022-07-31T20:55:58.494Z,100931.47
2022-07-31T20:58:25.787Z,100923.41
2022-07-31T21:00:53.271Z,100923.63
2022-07-31T21:03:20.697Z,100925.47
2022-07-31T21:05:47.700Z,100916.63
2022-07-31T21:08:14.909Z,100915.81
2022-07-31T21:10:42.053Z,100916.63
2022-07-31T21:13:09.146Z,100912.91
2022-07-31T21:15:43.229Z,100914.75
2022-07-31T21:18:15.333Z,100907.53
2022-07-31T21:20:52.303Z,100903.00
2022-07-31T21:23:26.298Z,100911.06
2022-07-31T21:25:58.306Z,100910.66
2022-07-31T21:28:26.710Z,100915.66
2022-07-31T21:30:55.799Z,100910.06
2022-07-31T21:33:24.376Z,100906.00
2022-07-31T21:35:51.398Z,100907.25
2022-07-31T21:38:18.249Z,100902.69
2022-07-31T21:40:45.597Z,100904.34
2022-07-31T21:43:16.980Z,100902.41
2022-07-31T21:45:54.882Z,100897.03
2022-07-31T21:48:25.080Z,100891.44
2022-07-31T21:50:52.400Z,100896.59
2022-07-31T21:53:19.008Z,100900.91
2022-07-31T21:55:45.647Z,100904.19
2022-07-31T21:58:12.273Z,100900.47
2022-07-31T22:00:39.020Z,100898.84
2022-07-31T22:03:05.992Z,100896.16
2022-07-31T22:05:51.920Z,100893.06
2022-07-31T22:08:18.992Z,100887.13
2022-07-31T22:10:45.947Z,100893.28
2022-07-31T22:13:12.656Z,100889.81
2022-07-31T22:15:52.640Z,100889.44
2022-07-31T22:18:27.135Z,100887.78
2022-07-31T22:20:54.066Z,100890.69
2022-07-31T22:23:20.946Z,100884.06
2022-07-31T22:25:49.135Z,100883.47
2022-07-31T22:28:17.598Z,100885.34
2022-07-31T22:30:44.480Z,100876.25
2022-07-31T22:33:11.348Z,100876.00
2022-07-31T22:35:38.239Z,100874.16
2022-07-31T22:38:04.842Z,100880.34
2022-07-31T22:40:31.586Z,100883.25
2022-07-31T22:42:59.395Z,100878.47
2022-07-31T22:45:29.534Z,100885.50
2022-07-31T22:47:56.967Z,100884.22
2022-07-31T22:50:23.908Z,100883.03
2022-07-31T22:52:50.529Z,100884.66
2022-07-31T22:55:17.144Z,100885.72
2022-07-31T22:57:44.099Z,100881.16
2022-07-31T23:00:13.352Z,100883.84
2022-07-31T23:02:41.377Z,100881.63
2022-07-31T23:05:09.301Z,100877.69
2022-07-31T23:07:35.990Z,100879.53
2022-07-31T23:10:02.631Z,100884.06
2022-07-31T23:12:29.749Z,100879.97
2022-07-31T23:14:56.349Z,100888.63
2022-07-31T23:17:23.631Z,100877.75
2022-07-31T23:19:52.686Z,100876.09
2022-07-31T23:22:33.939Z,100881.25
2022-07-31T23:25:05.207Z,100885.81
2022-07-31T23:27:32.947Z,100880.66
2022-07-31T23:30:00.653Z,100881.94
2022-07-31T23:32:27.857Z,100891.59
2022-07-31T23:34:54.720Z,100883.91
2022-07-31T23:37:21.364Z,100881.47
2022-07-31T23:39:48.013Z,100889.91
2022-07-31T23:42:33.283Z,100894.78
2022-07-31T23:44:59.897Z,100887.34
2022-07-31T23:47:44.459Z,100888.41
2022-07-31T23:50:12.003Z,100887.34
2022-07-31T23:52:38.696Z,100890.25
2022-07-31T23:55:05.721Z,100892.72
2022-07-31T23:57:34.399Z,100891.31
